createdAt,value
2023-01-21T00:03:55.380Z,100987.41
2023-01-21T00:09:02.099Z,100977.97
2023-01-21T00:14:08.949Z,100984.13
2023-01-21T00:19:17.140Z,100977.13
2023-01-21T00:24:25.206Z,100981.56
2023-01-21T00:29:31.622Z,100985.91
2023-01-21T00:34:39.413Z,100979.84
2023-01-21T00:39:46.188Z,100991.09
2023-01-21T00:44:52.904Z,100979.16
2023-01-21T00:50:01.252Z,100974.00
2023-01-21T00:55:10.963Z,100970.59
2023-01-21T01:00:19.783Z,100970.56
2023-01-21T01:05:27.610Z,100969.84
2023-01-21T01:10:34.434Z,100959.72
2023-01-21T01:15:41.400Z,100954.56
2023-01-21T01:20:49.209Z,100946.88
2023-01-21T01:26:00.613Z,100922.97
2023-01-21T01:31:09.024Z,100934.09
2023-01-21T01:36:19.843Z,100961.44
2023-01-21T01:41:31.213Z,100947.75
2023-01-21T01:46:39.765Z,100963.94
2023-01-21T01:51:54.969Z,100951.22
2023-01-21T01:57:04.800Z,100938.31
2023-01-21T02:02:15.959Z,100920.25
2023-01-21T02:07:26.941Z,100916.84
2023-01-21T02:12:34.300Z,100924.41
2023-01-21T02:17:56.640Z,100899.34
2023-01-21T02:23:14.942Z,100894.06
2023-01-21T02:29:13.238Z,100891.34
2023-01-21T02:34:30.853Z,100881.84
2023-01-21T02:40:04.991Z,100876.72
2023-01-21T02:45:25.679Z,100860.19
2023-01-21T02:50:37.829Z,100856.78
2023-01-21T02:55:44.430Z,100845.72
2023-01-21T03:01:02.952Z,100848.22
2023-01-21T03:06:53.968Z,100841.28
2023-01-21T03:12:19.382Z,100828.25
2023-01-21T03:17:36.716Z,100840.34
2023-01-21T03:22:46.105Z,100834.28
2023-01-21T03:27:53.529Z,100820.63
2023-01-21T03:33:02.463Z,100811.00
2023-01-21T03:38:14.973Z,100809.28
2023-01-21T03:43:21.387Z,100807.63
2023-01-21T03:48:37.888Z,100793.88
2023-01-21T03:53:46.523Z,100788.75
2023-01-21T03:58:53.146Z,100772.53
2023-01-21T04:04:00.029Z,100763.81
2023-01-21T04:09:08.940Z,100750.13
2023-01-21T04:14:15.843Z,100745.03
2023-01-21T04:19:22.320Z,100733.00
2023-01-21T04:24:30.486Z,100727.84
2023-01-21T04:29:37.318Z,100719.31
2023-01-21T04:34:44.156Z,100714.19
2023-01-21T04:39:52.036Z,100722.66
2023-01-21T04:44:58.552Z,100711.47
2023-01-21T04:50:05.453Z,100714.09
2023-01-21T04:55:15.270Z,100710.63
2023-01-21T05:00:22.816Z,100708.91
2023-01-21T05:05:29.185Z,100707.19
2023-01-21T05:10:37.186Z,100709.78
2023-01-21T05:15:43.632Z,100737.84
2023-01-21T05:20:50.189Z,100739.69
2023-01-21T05:25:58.254Z,100739.69
2023-01-21T05:31:05.636Z,100725.94
2023-01-21T05:36:13.524Z,100738.78
2023-01-21T05:41:21.809Z,100755.84
2023-01-21T05:46:28.974Z,100758.47
2023-01-21T05:51:36.028Z,100732.78
2023-01-21T05:56:44.108Z,100747.38
2023-01-21T06:01:50.610Z,100749.09
2023-01-21T06:06:57.146Z,100747.41
2023-01-21T06:12:05.658Z,100748.25
2023-01-21T06:17:12.353Z,100764.50
2023-01-21T06:22:19.558Z,100765.34
2023-01-21T06:27:28.814Z,100758.53
2023-01-21T06:32:36.053Z,100746.56
2023-01-21T06:37:42.794Z,100761.13
2023-01-21T06:42:51.986Z,100769.69
2023-01-21T06:47:58.664Z,100765.41
2023-01-21T06:53:05.752Z,100762.88
2023-01-21T06:58:13.697Z,100762.84
2023-01-21T07:03:20.276Z,100754.31
2023-01-21T07:08:27.563Z,100772.28
2023-01-21T07:13:35.545Z,100762.88
2023-01-21T07:18:42.192Z,100761.25
2023-01-21T07:23:48.899Z,100768.06
2023-01-21T07:28:57.163Z,100768.06
2023-01-21T07:34:04.214Z,100773.19
2023-01-21T07:39:11.534Z,100757.00
2023-01-21T07:44:19.706Z,100775.75
2023-01-21T07:49:26.869Z,100772.34
2023-01-21T07:54:33.615Z,100763.81
2023-01-21T07:59:42.595Z,100744.97
2023-01-21T08:04:49.441Z,100744.13
2023-01-21T08:09:59.025Z,100740.63
2023-01-21T08:15:09.370Z,100744.09
2023-01-21T10:12:30.109Z,100798.66
2023-01-21T10:17:52.590Z,100799.41
2023-01-21T10:23:08.441Z,100798.56
2023-01-21T10:28:27.606Z,100807.13
2023-01-21T10:33:37.796Z,100811.41
2023-01-21T10:38:57.931Z,100818.31
2023-01-21T10:44:17.698Z,100822.63
2023-01-21T10:49:44.796Z,100821.75
2023-01-21T10:55:03.686Z,100824.44
2023-01-21T11:00:25.312Z,100818.59
2023-01-21T11:05:36.355Z,100827.16
2023-01-21T11:10:49.300Z,100822.88
2023-01-21T11:16:05.200Z,100839.16
2023-01-21T11:21:23.930Z,100846.13
2023-01-21T11:26:38.949Z,100839.22
2023-01-21T11:32:14.242Z,100840.97
2023-01-21T11:37:27.598Z,100855.59
2023-01-21T11:42:34.228Z,100844.53
2023-01-21T11:47:50.636Z,100852.19
2023-01-21T11:53:17.943Z,100864.31
2023-01-21T11:58:30.761Z,100863.47
2023-01-21T12:03:46.355Z,100875.50
2023-01-21T12:08:57.115Z,100882.38
2023-01-21T12:14:19.259Z,100886.84
2023-01-21T12:19:47.307Z,100892.78
2023-01-21T12:25:15.604Z,100904.06
2023-01-21T12:30:34.849Z,100911.72
2023-01-21T12:35:48.183Z,100913.53
2023-01-21T12:41:03.217Z,100918.75
2023-01-21T12:46:20.944Z,100917.03
2023-01-21T12:51:41.293Z,100916.19
2023-01-21T12:56:58.566Z,100937.66
2023-01-21T13:02:23.467Z,100945.44
2023-01-21T13:07:48.723Z,100959.16
2023-01-21T13:13:02.349Z,100963.50
2023-01-21T13:18:16.528Z,100972.94
2023-01-21T13:23:40.235Z,100983.13
2023-01-21T13:28:56.462Z,100979.78
2023-01-21T13:34:19.864Z,100993.50
2023-01-21T13:39:48.727Z,101001.22
2023-01-21T13:45:24.130Z,101010.69
2023-01-21T13:51:42.232Z,101015.84
2023-01-21T13:57:15.839Z,101027.06
2023-01-21T14:02:49.667Z,101033.97
2023-01-21T14:08:06.146Z,101036.56
2023-01-21T14:14:18.221Z,101049.47
2023-01-21T14:19:52.275Z,101050.28
2023-01-21T14:25:25.946Z,101064.91
2023-01-21T14:31:02.783Z,101074.34
2023-01-21T15:01:00.954Z,101125.13
2023-01-21T15:06:27.794Z,101129.34
2023-01-21T15:11:44.905Z,101136.25
2023-01-21T15:16:57.966Z,101138.84
2023-01-21T15:22:23.601Z,101146.63
2023-01-21T15:27:34.017Z,101157.78
2023-01-21T15:33:00.850Z,101175.84
2023-01-21T15:38:15.405Z,101180.19
2023-01-21T15:43:33.793Z,101180.94
2023-01-21T15:49:10.865Z,101181.88
2023-01-21T15:54:30.253Z,101181.84
2023-01-21T16:00:17.377Z,101185.44
2023-01-21T16:05:44.025Z,101201.66
2023-01-21T16:11:19.682Z,101213.66
2023-01-21T16:16:48.056Z,101220.66
2023-01-21T16:22:05.753Z,101241.16
2023-01-21T16:27:24.937Z,101245.47
2023-01-21T16:32:38.650Z,101249.72
2023-01-21T16:37:57.905Z,101266.13
2023-01-21T16:43:28.522Z,101272.97
2023-01-21T16:48:37.976Z,101279.84
2023-01-21T16:53:46.732Z,101292.78
2023-01-21T16:58:56.490Z,101291.97
2023-01-21T17:04:12.510Z,101301.38
2023-01-21T17:09:32.272Z,101320.22
2023-01-21T17:14:42.052Z,101317.72
2023-01-21T17:19:56.017Z,101324.59
2023-01-21T17:25:17.389Z,101342.53
2023-01-21T17:30:37.201Z,101353.75
2023-01-21T17:36:11.952Z,101363.25
2023-01-21T17:41:29.369Z,101370.97
2023-01-21T17:46:38.925Z,101379.50
2023-01-21T17:51:49.357Z,101396.91
2023-01-21T17:57:00.835Z,101395.06
2023-01-21T18:02:13.231Z,101420.72
2023-01-21T18:07:26.941Z,101426.72
2023-01-21T18:12:36.269Z,101423.31
2023-01-21T18:17:47.743Z,101430.16
2023-01-21T18:23:00.368Z,101436.19
2023-01-21T18:28:20.127Z,101434.44
2023-01-21T18:33:29.131Z,101443.03
2023-01-21T18:38:38.754Z,101442.19
2023-01-21T18:43:49.956Z,101455.06
2023-01-21T18:48:58.384Z,101464.50
2023-01-21T18:54:07.838Z,101461.06
2023-01-21T18:59:23.109Z,101467.06
2023-01-21T19:04:32.190Z,101474.75
2023-01-21T19:09:46.488Z,101473.81
2023-01-21T19:15:02.350Z,101480.69
2023-01-21T19:20:22.489Z,101489.91
2023-01-21T19:25:33.445Z,101495.16
2023-01-21T19:30:46.564Z,101500.22
2023-01-21T19:36:01.989Z,101510.59
2023-01-21T19:41:10.615Z,101520.91
2023-01-21T19:46:24.039Z,101527.78
2023-01-21T19:51:32.985Z,101528.59
2023-01-21T19:56:45.437Z,101539.66
2023-01-21T20:01:55.817Z,101539.66
2023-01-21T20:07:05.248Z,101539.75
2023-01-21T20:12:14.634Z,101552.63
2023-01-21T20:17:25.783Z,101568.88
2023-01-21T20:22:35.100Z,101563.78
2023-01-21T20:27:43.458Z,101576.63
2023-01-21T20:32:54.896Z,101586.81
2023-01-21T20:38:03.351Z,101589.53
2023-01-21T20:43:16.139Z,101599.78
2023-01-21T20:48:33.854Z,101604.91
2023-01-21T20:53:47.750Z,101615.97
2023-01-21T20:58:59.558Z,101622.97
2023-01-21T21:04:11.314Z,101629.88
2023-01-21T21:09:21.959Z,101637.59
2023-01-21T21:14:31.398Z,101641.91
2023-01-21T21:19:40.736Z,101655.72
2023-01-21T21:24:49.592Z,101668.50
2023-01-21T21:30:04.550Z,101674.50
2023-01-21T21:35:26.215Z,101685.69
2023-01-21T21:40:37.999Z,101687.38
2023-01-21T21:46:00.813Z,101688.13
2023-01-21T21:51:15.395Z,101698.44
2023-01-21T21:56:33.156Z,101700.97
2023-01-21T22:01:43.296Z,101715.53
2023-01-21T22:06:54.367Z,101712.91
2023-01-21T22:12:02.728Z,101716.31
2023-01-21T22:17:10.406Z,101725.81
2023-01-21T22:22:19.479Z,101725.00
2023-01-21T22:27:26.536Z,101732.75
2023-01-21T22:32:33.617Z,101738.69
2023-01-21T22:37:41.997Z,101748.03
2023-01-21T22:42:49.329Z,101749.75
2023-01-21T22:47:56.172Z,101757.47
2023-01-21T22:53:04.607Z,101753.22
2023-01-21T22:58:11.743Z,101757.56
2023-01-21T23:03:19.397Z,101747.19
2023-01-21T23:08:28.617Z,101761.78
2023-01-21T23:13:37.065Z,101764.31
2023-01-21T23:18:44.533Z,101770.25
2023-01-21T23:23:53.291Z,101780.53
2023-01-21T23:29:01.144Z,101787.41
2023-01-21T23:34:08.374Z,101781.25
2023-01-21T23:39:16.616Z,101783.97
2023-01-21T23:44:25.695Z,101779.66
2023-01-21T23:49:32.390Z,101783.13
2023-01-21T23:54:40.669Z,101778.78
2023-01-21T23:59:47.253Z,101782.22
